Nearby METAR Reports

 

EGUW - Wattisham Raf, United Kingdom
Distance from station: SW 12mi, 19km
Updated: 22/01/2022 02:50
Clear
Clear
 Wind from NW
Wind: NW 6 mph , 9 km/h
Temperature: 1°C
Wind Chill: -2°C
Dew Point: 0°C
Humidity: 93%
Barometer: 1035 hPa
Clouds: Clear
Visibility: 6 miles , 10 km
2022/01/22 02:50 EGUW 220250Z AUTO 32005KT 9999 NCD 01/00 Q1035
EGUL - Lakenheath Raf, United Kingdom
Distance from station: WNW 29mi, 47km
Updated: 22/01/2022 01:56
NOT Current
Clear
Clear
 
Clouds: Clear
2022/01/22 01:56 EGUL 220156Z AUTO M M M CLR M M RMK AO2 SLPNO RVRNO PNO VISNO RWY06 CHINO RWY06 $
 
EGUN - Mildenhall Raf, United Kingdom
Distance from station: WNW 32mi, 51km
Updated: 22/01/2022 02:56
Mist, Clear
Mist, Clear
 Wind from W
Wind: W 3 mph , 6 km/h
Temperature: -1°C
Dew Point: -1°C
Humidity: 100%
Barometer: 1035.6 hPa
Summary: Mist
Clouds: Clear
Visibility: 5 miles , 8 km
2022/01/22 02:56 EGUN 220256Z 26003KT 8000 BR CLR M01/M01 A3058 RMK AO2A SLP359 T10081008 57008 FZRANO $
EGSH - Norwich Wea Cntr, United Kingdom
Distance from station: N 32mi, 52km
Updated: 22/01/2022 02:50
Clear
Clear
 Wind from W
Wind: W 9 mph , 15 km/h
Temperature: 1°C
Wind Chill: -3°C
Dew Point: 0°C
Humidity: 93%
Barometer: 1035 hPa
Clouds: Clear
Visibility: 6 miles , 10 km
2022/01/22 02:50 EGSH 220250Z AUTO 27008KT 9999 NCD 01/00 Q1035
 
EGYM - Marham Raf, United Kingdom
Distance from station: NW 39mi, 62km
Updated: 22/01/2022 02:50
Clear
Clear
 Wind from W
Wind: W 9 mph , 15 km/h
Temperature: 2°C
Wind Chill: -2°C
Dew Point: 1°C
Humidity: 93%
Barometer: 1035 hPa
Clouds: Clear
Visibility: 6 miles , 10 km
2022/01/22 02:50 EGYM 220250Z AUTO 28008KT 9999 NCD 02/01 Q1035
EGSC - Cambridge, United Kingdom
Distance from station: W 43mi, 69km
Updated: 21/01/2022 16:50
NOT Current
Mostly cloudy
Mostly cloudy
 Wind from W
Wind: W 8 mph , 13 km/h
Temperature: 5°C
Wind Chill: 2°C
Dew Point: 1°C
Humidity: 76%
Barometer: 1036 hPa
Clouds: Mostly cloudy
Visibility: 6 miles , 10 km
Cloud details: Mostly cloudy 701 m
2022/01/21 16:50 EGSC 211650Z 27007KT 9999 BKN023 05/01 Q1036
 
EGSS - Stansted Airport, United Kingdom
Distance from station: WSW 47mi, 76km
Updated: 22/01/2022 02:50
Clear
Clear
 Wind from WNW
Wind: WNW 8 mph , 13 km/h
Temperature: 2°C
Wind Chill: -1°C
Dew Point: 1°C
Humidity: 93%
Barometer: 1036 hPa
Clouds: Clear
Visibility: 5 miles , 8 km
2022/01/22 02:50 EGSS 220250Z AUTO 30007KT 8000 NCD 02/01 Q1036
EGMC - Southend-On-Sea, United Kingdom
Distance from station: SSW 50mi, 80km
Updated: 22/01/2022 02:50
Clear
Clear
 Wind from W
Wind: W 6 mph , 9 km/h
Temperature: 2°C
Wind Chill: -1°C
Dew Point: 1°C
Humidity: 93%
Barometer: 1036 hPa
Summary: Clear
Visibility: greater than 7 miles , 10 km
2022/01/22 02:50 EGMC 220250Z 27005KT CAVOK 02/01 Q1036